Time;durP1;ratioP1;P1;durP2;ratioP2;P2;SDS_P1;SDS_P2;PMS_P1;PMS_P2;Temp;Humidity;BMP_temperature;BMP_pressure;BME280_temperature;BME280_humidity;BME280_pressure;Samples;Min_cycle;Max_cycle;Signal;HPM_P1;HPM_P2
2023/08/17 00:01:34;;;;;;;3.80;2.77;;;21.80;99.90;;;;;;5105616;28;20900;-56
2023/08/17 00:03:59;;;;;;;3.97;2.33;;;21.80;99.90;;;;;;5098730;28;20304;-56
2023/08/17 00:06:25;;;;;;;3.37;2.43;;;21.80;99.90;;;;;;5084525;28;20209;-57
2023/08/17 00:08:51;;;;;;;2.67;2.47;;;21.80;99.90;;;;;;5096669;28;20196;-57
2023/08/17 00:11:16;;;;;;;3.67;2.47;;;21.70;99.90;;;;;;5089515;28;20202;-56
2023/08/17 00:13:42;;;;;;;4.20;2.93;;;21.70;99.90;;;;;;5094777;28;20200;-56
2023/08/17 00:16:07;;;;;;;2.77;2.57;;;21.70;99.90;;;;;;5093668;28;20230;-55
2023/08/17 00:18:33;;;;;;;3.20;2.90;;;21.60;99.90;;;;;;5094372;28;20231;-55
2023/08/17 00:20:58;;;;;;;3.47;2.47;;;21.50;99.90;;;;;;5096424;28;20188;-55
2023/08/17 00:23:24;;;;;;;4.20;2.43;;;21.40;99.90;;;;;;5091586;28;20197;-56
2023/08/17 00:25:49;;;;;;;3.83;2.70;;;21.40;99.90;;;;;;5093878;28;20269;-56
2023/08/17 00:28:15;;;;;;;3.83;2.53;;;21.40;99.90;;;;;;5076560;28;20212;-56
2023/08/17 00:30:40;;;;;;;3.10;2.70;;;21.40;99.90;;;;;;5089060;28;20197;-56
2023/08/17 00:33:06;;;;;;;7.77;2.83;;;21.30;99.90;;;;;;5095055;28;20651;-57
2023/08/17 00:35:32;;;;;;;4.87;3.10;;;21.30;99.90;;;;;;5104792;28;20193;-57
2023/08/17 00:37:58;;;;;;;4.57;2.93;;;21.20;99.90;;;;;;5095669;28;20201;-57
2023/08/17 00:40:24;;;;;;;3.73;2.80;;;21.30;99.90;;;;;;5096407;28;20200;-57
2023/08/17 00:42:49;;;;;;;2.83;2.57;;;21.30;99.90;;;;;;5096501;28;20221;-57
2023/08/17 00:45:15;;;;;;;2.83;2.20;;;21.20;99.90;;;;;;5075311;28;20192;-57
2023/08/17 00:47:42;;;;;;;4.23;2.73;;;21.30;99.90;;;;;;5093676;28;20220;-57
2023/08/17 00:50:07;;;;;;;4.77;2.47;;;21.20;99.90;;;;;;5104209;28;20227;-57
2023/08/17 00:52:34;;;;;;;2.97;2.37;;;21.20;99.90;;;;;;5067602;28;20205;-59
2023/08/17 00:55:00;;;;;;;4.23;3.17;;;21.20;99.90;;;;;;5070507;28;20215;-56
2023/08/17 00:57:26;;;;;;;2.60;2.33;;;21.20;99.90;;;;;;5104517;28;20593;-58
2023/08/17 00:59:52;;;;;;;3.60;2.30;;;21.20;99.90;;;;;;5096625;28;20205;-61
2023/08/17 01:02:18;;;;;;;3.83;2.60;;;21.20;99.90;;;;;;5099723;28;20601;-57
2023/08/17 01:04:44;;;;;;;3.87;2.70;;;21.10;99.90;;;;;;5093856;28;20190;-56
2023/08/17 01:07:09;;;;;;;2.73;2.40;;;21.00;99.90;;;;;;5094787;28;20222;-55
2023/08/17 01:09:36;;;;;;;5.27;2.90;;;21.00;99.90;;;;;;5077822;28;20240;-56
2023/08/17 01:12:24;;;;;;;4.83;2.67;;;20.80;99.90;;;;;;5095813;28;20212;-56
2023/08/17 01:15:07;;;;;;;3.37;2.47;;;20.80;99.90;;;;;;5087580;28;20208;-58
2023/08/17 01:17:55;;;;;;;3.37;2.53;;;20.70;99.90;;;;;;5086245;28;20272;-58
2023/08/17 01:20:23;;;;;;;3.07;2.80;;;20.70;99.90;;;;;;5087410;28;20191;-57
2023/08/17 01:22:51;;;;;;;6.37;3.40;;;20.80;99.90;;;;;;5086053;28;20451;-57
2023/08/17 01:25:17;;;;;;;2.77;2.50;;;20.80;99.90;;;;;;5090203;28;20184;-56
2023/08/17 01:27:45;;;;;;;3.73;2.87;;;20.70;99.90;;;;;;5094705;28;20208;-56
2023/08/17 01:30:14;;;;;;;5.97;3.33;;;20.60;99.90;;;;;;5081619;28;20193;-56
2023/08/17 01:32:50;;;;;;;2.90;2.70;;;20.70;99.90;;;;;;5095935;28;20691;-56
2023/08/17 01:35:30;;;;;;;3.60;2.30;;;20.60;99.90;;;;;;5098017;28;20175;-57
2023/08/17 01:37:59;;;;;;;4.20;2.50;;;20.60;99.90;;;;;;5098651;28;20342;-56
2023/08/17 01:40:28;;;;;;;3.57;2.90;;;20.60;99.90;;;;;;5091197;28;20235;-57
2023/08/17 01:42:55;;;;;;;4.70;3.37;;;20.60;99.90;;;;;;5099642;28;20263;-58
2023/08/17 01:45:21;;;;;;;5.37;3.23;;;20.70;99.90;;;;;;5081514;28;20189;-57
2023/08/17 01:47:46;;;;;;;4.23;3.03;;;20.70;99.90;;;;;;5093169;28;20249;-58
2023/08/17 01:50:11;;;;;;;3.50;2.67;;;20.60;99.90;;;;;;5084185;28;20220;-59
2023/08/17 01:52:37;;;;;;;2.63;2.43;;;20.60;99.90;;;;;;5101360;28;20271;-59
2023/08/17 01:55:03;;;;;;;3.50;2.80;;;20.60;99.90;;;;;;5091895;28;20191;-59
2023/08/17 01:57:28;;;;;;;5.67;2.70;;;20.50;99.90;;;;;;5102878;28;20553;-58
2023/08/17 01:59:54;;;;;;;5.67;3.00;;;20.50;99.90;;;;;;5084916;28;20221;-59
2023/08/17 02:02:21;;;;;;;6.70;3.20;;;20.60;99.90;;;;;;5103207;28;20196;-59
2023/08/17 02:04:46;;;;;;;9.23;3.03;;;20.50;99.90;;;;;;5094178;28;20196;-59
2023/08/17 02:07:12;;;;;;;5.23;2.93;;;20.50;99.90;;;;;;5081029;28;20249;-58
2023/08/17 02:09:37;;;;;;;3.20;2.87;;;20.50;99.90;;;;;;5074378;28;20214;-58
2023/08/17 02:12:03;;;;;;;4.23;2.80;;;20.40;99.90;;;;;;5089966;28;20195;-58
2023/08/17 02:14:29;;;;;;;5.73;3.13;;;20.40;99.90;;;;;;5102708;28;20249;-58
2023/08/17 02:16:54;;;;;;;3.03;2.37;;;20.40;99.90;;;;;;5095624;28;20232;-58
2023/08/17 02:19:20;;;;;;;4.37;2.90;;;20.40;99.90;;;;;;5091349;28;20276;-57
2023/08/17 02:21:46;;;;;;;4.97;3.00;;;20.30;99.90;;;;;;5101420;28;20202;-56
2023/08/17 02:24:11;;;;;;;3.17;2.90;;;20.20;99.90;;;;;;5100746;28;20202;-58
2023/08/17 02:26:38;;;;;;;5.47;3.30;;;20.30;99.90;;;;;;5098980;28;20224;-58
2023/08/17 02:29:03;;;;;;;3.70;2.93;;;20.30;99.90;;;;;;5091709;28;20200;-57
2023/08/17 02:31:29;;;;;;;6.13;3.03;;;20.30;99.90;;;;;;5081448;28;20851;-57
2023/08/17 02:33:58;;;;;;;6.13;3.23;;;20.30;99.90;;;;;;5092992;28;20203;-57
2023/08/17 02:36:23;;;;;;;4.43;2.77;;;20.20;99.90;;;;;;5095044;28;20783;-57
2023/08/17 02:38:49;;;;;;;3.73;2.73;;;20.20;99.90;;;;;;5070046;28;20617;-56
2023/08/17 02:41:14;;;;;;;3.30;3.00;;;20.20;99.90;;;;;;5101011;28;20208;-56
2023/08/17 02:43:40;;;;;;;6.90;3.13;;;20.20;99.90;;;;;;5088707;28;20198;-57
2023/08/17 02:46:07;;;;;;;4.97;3.20;;;20.10;99.90;;;;;;5089028;28;20290;-56
2023/08/17 02:48:33;;;;;;;5.07;2.87;;;20.10;99.90;;;;;;5094535;28;20218;-56
2023/08/17 02:50:58;;;;;;;4.70;3.13;;;20.10;99.90;;;;;;5080545;28;20233;-57
2023/08/17 02:53:23;;;;;;;4.70;2.77;;;20.10;99.90;;;;;;5092315;28;20291;-57
2023/08/17 02:55:49;;;;;;;3.87;3.20;;;20.10;99.90;;;;;;5096688;28;20193;-56
2023/08/17 02:58:15;;;;;;;4.30;3.03;;;20.00;99.90;;;;;;5102258;28;20284;-57
2023/08/17 03:00:40;;;;;;;3.80;3.33;;;20.00;99.90;;;;;;5093163;28;20198;-56
2023/08/17 03:03:06;;;;;;;5.10;3.00;;;20.00;99.90;;;;;;5098433;28;20195;-57
2023/08/17 03:05:31;;;;;;;3.43;3.07;;;19.90;99.90;;;;;;5099504;28;20195;-59
2023/08/17 03:07:57;;;;;;;6.97;2.90;;;19.90;99.90;;;;;;5097214;28;20564;-59
2023/08/17 03:10:24;;;;;;;6.47;3.23;;;19.90;99.90;;;;;;5090568;28;20193;-60
2023/08/17 03:12:50;;;;;;;8.37;2.80;;;19.80;99.90;;;;;;5092467;28;20195;-59
2023/08/17 03:15:16;;;;;;;3.97;2.70;;;19.90;99.90;;;;;;5085766;28;20236;-59
2023/08/17 03:17:41;;;;;;;7.97;3.10;;;19.80;99.90;;;;;;5089424;28;20582;-59
2023/08/17 03:20:10;;;;;;;4.00;2.63;;;19.90;99.90;;;;;;5083073;28;20194;-59
2023/08/17 03:22:35;;;;;;;6.63;3.10;;;20.00;99.90;;;;;;5091817;28;20250;-59
2023/08/17 03:25:02;;;;;;;6.37;3.07;;;20.00;99.90;;;;;;5092621;28;20246;-60
2023/08/17 03:27:28;;;;;;;4.23;3.13;;;20.00;99.90;;;;;;5100828;28;20683;-60
2023/08/17 03:29:54;;;;;;;4.17;3.27;;;19.90;99.90;;;;;;5101112;28;20207;-60
2023/08/17 03:32:19;;;;;;;5.10;2.93;;;20.00;99.90;;;;;;5099242;28;20206;-58
2023/08/17 03:34:45;;;;;;;4.73;3.10;;;19.90;99.90;;;;;;5071488;28;20195;-57
2023/08/17 03:37:10;;;;;;;4.63;3.23;;;19.90;99.90;;;;;;5097743;28;20237;-58
2023/08/17 03:39:36;;;;;;;5.50;2.30;;;19.90;99.90;;;;;;5099501;28;20701;-54
2023/08/17 03:42:01;;;;;;;9.83;3.13;;;19.80;99.90;;;;;;5105059;28;20200;-55
2023/08/17 03:44:27;;;;;;;3.63;2.10;;;19.80;99.90;;;;;;5095220;28;20272;-55
2023/08/17 03:46:52;;;;;;;5.33;2.60;;;19.80;99.90;;;;;;5076722;28;20219;-60
2023/08/17 03:49:18;;;;;;;3.10;2.27;;;19.80;99.90;;;;;;5097064;28;20201;-58
2023/08/17 03:51:43;;;;;;;2.83;2.53;;;19.80;99.90;;;;;;5089183;28;20661;-58
2023/08/17 03:54:09;;;;;;;4.97;2.37;;;19.70;99.90;;;;;;5096908;28;20219;-62
2023/08/17 03:56:34;;;;;;;3.70;2.57;;;19.80;99.90;;;;;;5102467;28;20963;-55
2023/08/17 03:59:00;;;;;;;4.07;2.90;;;19.80;99.90;;;;;;5101566;28;20281;-55
2023/08/17 04:01:25;;;;;;;2.60;2.40;;;19.80;99.90;;;;;;5103514;28;20615;-56
2023/08/17 04:03:51;;;;;;;5.27;3.03;;;19.70;99.90;;;;;;5098756;28;20230;-56
2023/08/17 04:06:16;;;;;;;3.50;2.87;;;19.80;99.90;;;;;;5100253;28;20585;-56
2023/08/17 04:08:42;;;;;;;6.00;2.80;;;19.70;99.90;;;;;;5102581;28;20195;-56
2023/08/17 04:11:07;;;;;;;5.27;3.07;;;19.60;99.90;;;;;;5094470;28;20249;-59
2023/08/17 04:13:32;;;;;;;5.40;2.73;;;19.50;99.90;;;;;;5100839;28;20251;-58
2023/08/17 04:15:58;;;;;;;4.47;2.33;;;19.60;99.90;;;;;;5090468;28;20194;-58
2023/08/17 04:18:24;;;;;;;3.77;2.50;;;19.70;99.90;;;;;;5098309;28;20214;-56
2023/08/17 04:20:50;;;;;;;4.50;2.43;;;19.70;99.90;;;;;;5102721;28;20233;-56
2023/08/17 04:23:15;;;;;;;6.67;2.53;;;19.80;99.90;;;;;;5101027;28;20551;-56
2023/08/17 04:25:41;;;;;;;8.77;2.90;;;19.80;99.90;;;;;;5101904;28;20277;-56
2023/08/17 04:28:07;;;;;;;3.60;2.67;;;19.80;99.90;;;;;;5099286;28;20196;-56
2023/08/17 04:30:32;;;;;;;3.57;2.43;;;19.70;99.90;;;;;;5096249;28;20251;-57
2023/08/17 04:32:57;;;;;;;2.80;2.57;;;19.70;99.90;;;;;;5103003;28;20256;-56
2023/08/17 04:35:23;;;;;;;4.27;2.73;;;19.70;99.90;;;;;;5093980;28;20202;-57
2023/08/17 04:37:48;;;;;;;4.63;2.57;;;19.70;99.90;;;;;;5088822;28;20200;-56
2023/08/17 04:40:15;;;;;;;6.40;2.43;;;19.70;99.90;;;;;;5100499;28;20276;-56
2023/08/17 04:42:40;;;;;;;5.93;2.50;;;19.70;99.90;;;;;;5100918;28;20289;-57
2023/08/17 04:45:06;;;;;;;4.93;2.60;;;19.70;99.90;;;;;;5098467;28;20789;-56
2023/08/17 04:47:32;;;;;;;10.10;3.30;;;19.80;99.90;;;;;;5076808;28;20214;-55
2023/08/17 04:49:57;;;;;;;7.47;2.80;;;19.70;99.90;;;;;;5071943;28;20229;-58
2023/08/17 04:52:23;;;;;;;7.63;2.70;;;19.70;99.90;;;;;;5095672;28;20211;-58
2023/08/17 04:54:48;;;;;;;5.57;2.50;;;19.80;99.90;;;;;;5104052;28;20855;-58
2023/08/17 04:57:14;;;;;;;3.97;3.27;;;19.90;99.90;;;;;;5095136;28;20287;-58
2023/08/17 04:59:40;;;;;;;6.13;3.13;;;19.80;99.90;;;;;;5104116;28;20198;-56
2023/08/17 05:02:06;;;;;;;6.43;2.73;;;19.90;99.90;;;;;;5073729;28;20586;-56
2023/08/17 05:04:31;;;;;;;6.40;3.00;;;19.90;99.90;;;;;;5103096;28;20208;-56
2023/08/17 05:06:57;;;;;;;3.67;2.17;;;19.90;99.90;;;;;;5101657;28;20931;-56
2023/08/17 05:09:22;;;;;;;3.00;2.80;;;19.90;99.90;;;;;;5094026;28;20312;-58
2023/08/17 05:11:48;;;;;;;2.57;2.30;;;19.90;99.90;;;;;;5096265;28;20201;-58
2023/08/17 05:14:13;;;;;;;5.33;2.50;;;19.90;99.90;;;;;;5094662;28;20215;-58
2023/08/17 05:16:39;;;;;;;4.97;2.10;;;19.90;99.90;;;;;;5101019;28;20206;-58
2023/08/17 05:19:04;;;;;;;3.03;2.10;;;19.90;99.90;;;;;;5095772;28;20210;-57
2023/08/17 05:21:30;;;;;;;4.60;2.33;;;19.90;99.90;;;;;;5095790;28;20199;-58
2023/08/17 05:23:56;;;;;;;5.63;2.13;;;19.90;99.90;;;;;;5099877;28;20254;-57
2023/08/17 05:26:22;;;;;;;2.70;2.50;;;20.00;99.90;;;;;;5093801;28;20219;-57
2023/08/17 05:28:47;;;;;;;5.97;3.17;;;19.90;99.90;;;;;;5102817;28;20203;-57
2023/08/17 05:31:13;;;;;;;8.63;3.83;;;19.90;99.90;;;;;;5095701;28;20194;-57
2023/08/17 05:33:40;;;;;;;4.57;2.80;;;20.00;99.90;;;;;;5099067;28;20531;-56
2023/08/17 05:36:06;;;;;;;4.90;2.60;;;20.20;99.90;;;;;;5101900;28;20260;-57
2023/08/17 05:38:32;;;;;;;5.00;2.90;;;20.20;99.90;;;;;;5103368;28;20231;-57
2023/08/17 05:40:58;;;;;;;4.83;2.87;;;20.20;99.90;;;;;;5094038;28;20224;-57
2023/08/17 05:43:24;;;;;;;3.10;2.37;;;20.20;99.90;;;;;;5098356;28;20684;-57
2023/08/17 05:45:50;;;;;;;3.67;2.70;;;20.20;99.90;;;;;;5092237;28;20340;-56
2023/08/17 05:48:17;;;;;;;3.60;2.30;;;20.20;99.90;;;;;;5069228;28;20272;-56
2023/08/17 05:50:42;;;;;;;2.40;2.20;;;20.10;99.90;;;;;;5102812;28;20575;-56
2023/08/17 05:53:08;;;;;;;10.47;3.60;;;20.10;99.90;;;;;;5098208;28;20201;-56
2023/08/17 05:55:33;;;;;;;6.93;2.80;;;20.10;99.90;;;;;;5094048;28;20192;-56
2023/08/17 05:57:59;;;;;;;4.67;2.90;;;20.10;99.90;;;;;;5103263;28;20206;-60
2023/08/17 06:00:25;;;;;;;5.27;3.10;;;20.20;99.90;;;;;;5093964;28;20234;-60
2023/08/17 06:02:51;;;;;;;4.30;2.37;;;20.40;99.90;;;;;;5097275;28;20203;-61
2023/08/17 06:05:17;;;;;;;5.37;2.70;;;20.40;99.90;;;;;;5070579;28;20230;-61
2023/08/17 06:07:42;;;;;;;3.00;2.30;;;20.50;99.90;;;;;;5089330;28;20245;-56
2023/08/17 06:10:09;;;;;;;3.00;2.47;;;20.50;99.90;;;;;;5092598;28;20324;-56
2023/08/17 06:12:35;;;;;;;7.60;2.77;;;20.50;99.90;;;;;;5092734;28;20255;-55
2023/08/17 06:15:03;;;;;;;5.50;2.80;;;20.40;99.90;;;;;;5099428;28;20488;-56
2023/08/17 06:17:28;;;;;;;13.83;2.70;;;20.30;99.90;;;;;;5088094;28;20563;-56
2023/08/17 06:19:54;;;;;;;4.97;2.70;;;20.20;99.90;;;;;;5092357;28;20262;-56
2023/08/17 06:22:19;;;;;;;3.27;2.40;;;20.20;99.90;;;;;;5094303;28;20198;-56
2023/08/17 06:24:45;;;;;;;3.53;2.87;;;20.30;99.90;;;;;;5093874;28;20204;-56
2023/08/17 06:27:14;;;;;;;4.43;2.90;;;20.40;99.90;;;;;;5093853;28;20386;-56
2023/08/17 06:29:39;;;;;;;3.07;2.53;;;20.50;99.90;;;;;;5096883;28;20612;-57
2023/08/17 06:32:08;;;;;;;5.07;2.47;;;20.40;99.90;;;;;;5096258;28;20201;-56
2023/08/17 06:34:34;;;;;;;3.17;2.77;;;20.50;99.90;;;;;;5081656;28;20216;-56
2023/08/17 06:37:02;;;;;;;2.60;2.40;;;20.50;99.90;;;;;;5089991;28;20234;-55
2023/08/17 06:39:28;;;;;;;2.77;2.30;;;20.50;99.90;;;;;;5091885;28;20730;-55
2023/08/17 06:41:54;;;;;;;3.17;2.40;;;20.50;99.90;;;;;;5087278;28;20254;-58
2023/08/17 06:44:19;;;;;;;4.03;2.50;;;20.60;99.90;;;;;;5097114;28;20223;-58
2023/08/17 06:46:45;;;;;;;4.00;3.57;;;20.70;99.90;;;;;;5077499;28;20211;-58
2023/08/17 06:49:12;;;;;;;4.67;2.87;;;20.70;99.90;;;;;;5095907;28;20715;-58
2023/08/17 06:51:38;;;;;;;2.70;2.50;;;20.60;99.90;;;;;;5093533;28;20197;-58
2023/08/17 06:54:04;;;;;;;3.63;2.57;;;20.60;99.90;;;;;;5101142;28;20193;-54
2023/08/17 06:56:29;;;;;;;2.53;2.33;;;20.60;99.90;;;;;;5094618;28;20560;-55
2023/08/17 06:58:55;;;;;;;7.07;2.53;;;20.60;99.90;;;;;;5097702;28;20196;-56
2023/08/17 07:01:21;;;;;;;3.07;2.60;;;20.70;99.90;;;;;;5096906;28;20196;-55
2023/08/17 07:03:47;;;;;;;4.43;2.37;;;20.80;99.90;;;;;;5101794;28;20196;-61
2023/08/17 07:06:12;;;;;;;2.80;2.37;;;21.00;99.90;;;;;;5098650;28;20204;-64
2023/08/17 07:08:38;;;;;;;5.43;3.40;;;21.00;99.90;;;;;;5071937;28;20610;-60
2023/08/17 07:11:05;;;;;;;6.50;3.67;;;21.00;99.90;;;;;;5096273;28;20185;-64
2023/08/17 07:13:31;;;;;;;5.17;3.40;;;21.00;99.90;;;;;;5090369;28;20201;-60
2023/08/17 07:15:56;;;;;;;3.37;2.77;;;20.90;99.90;;;;;;5092169;28;20215;-58
2023/08/17 07:18:22;;;;;;;7.20;2.63;;;21.00;99.90;;;;;;5071601;28;20208;-59
2023/08/17 07:20:47;;;;;;;4.53;2.67;;;21.10;99.90;;;;;;5090372;28;20930;-58
2023/08/17 07:23:13;;;;;;;3.60;2.73;;;21.10;99.90;;;;;;5097439;28;20250;-60
2023/08/17 07:25:38;;;;;;;3.47;2.93;;;21.10;99.90;;;;;;5093368;28;20214;-64
2023/08/17 07:28:04;;;;;;;4.37;2.57;;;21.20;99.90;;;;;;5098905;28;20315;-60
2023/08/17 07:30:30;;;;;;;14.93;3.27;;;21.20;99.90;;;;;;5095105;28;20224;-61
2023/08/17 07:32:55;;;;;;;8.50;2.57;;;21.40;99.90;;;;;;5089811;28;20192;-59
2023/08/17 07:35:20;;;;;;;5.70;3.80;;;21.80;99.90;;;;;;5092598;28;20517;-64
2023/08/17 07:37:46;;;;;;;3.17;2.73;;;22.20;99.90;;;;;;5079670;28;20275;-63
2023/08/17 07:40:11;;;;;;;2.53;2.13;;;22.40;99.90;;;;;;5096902;28;20192;-66
2023/08/17 07:42:37;;;;;;;3.27;2.50;;;22.50;99.90;;;;;;5095304;28;20822;-59
2023/08/17 07:45:05;;;;;;;5.17;2.50;;;22.50;99.90;;;;;;5094177;28;20192;-57
2023/08/17 07:47:31;;;;;;;3.17;2.37;;;22.40;99.90;;;;;;5097043;28;20336;-58
2023/08/17 07:49:57;;;;;;;6.47;3.17;;;22.30;99.90;;;;;;5090843;28;20291;-57
2023/08/17 07:52:23;;;;;;;3.20;2.40;;;22.10;99.90;;;;;;5089110;28;20196;-58
2023/08/17 07:54:49;;;;;;;5.67;2.97;;;22.00;99.90;;;;;;5094232;28;20928;-57
2023/08/17 07:57:14;;;;;;;6.53;2.80;;;22.00;99.90;;;;;;5077031;28;20761;-56
2023/08/17 07:59:40;;;;;;;2.23;2.03;;;22.00;99.90;;;;;;5094342;28;20200;-56
2023/08/17 08:02:05;;;;;;;4.67;2.87;;;21.90;99.90;;;;;;5091747;28;20185;-58
2023/08/17 08:04:31;;;;;;;3.73;2.30;;;21.80;99.90;;;;;;5076461;28;20184;-56
2023/08/17 08:06:56;;;;;;;4.80;2.70;;;21.90;99.90;;;;;;5074383;28;20247;-55
2023/08/17 08:09:22;;;;;;;7.50;2.93;;;22.10;99.90;;;;;;5094764;28;21004;-58
2023/08/17 08:11:47;;;;;;;3.23;2.30;;;22.10;99.90;;;;;;5093530;28;20253;-58
2023/08/17 08:14:13;;;;;;;3.80;2.70;;;22.20;99.90;;;;;;5078335;28;20295;-58
2023/08/17 08:16:38;;;;;;;6.57;2.80;;;22.30;99.90;;;;;;5098695;28;20197;-57
2023/08/17 08:19:04;;;;;;;8.20;2.93;;;22.30;99.90;;;;;;5098819;28;20216;-62
2023/08/17 08:21:29;;;;;;;5.03;2.60;;;22.30;99.90;;;;;;5080855;28;20205;-62
2023/08/17 08:23:55;;;;;;;3.67;2.57;;;22.50;99.90;;;;;;5095254;28;20201;-57
2023/08/17 08:26:21;;;;;;;3.80;2.97;;;22.60;99.90;;;;;;5095991;28;20228;-57
2023/08/17 08:28:46;;;;;;;3.33;2.30;;;22.60;99.90;;;;;;5092665;28;20197;-55
2023/08/17 08:31:12;;;;;;;4.47;2.97;;;22.50;99.90;;;;;;5075932;28;20418;-70
2023/08/17 08:33:37;;;;;;;7.43;3.20;;;22.50;99.90;;;;;;5101559;28;20625;-60
2023/08/17 08:36:03;;;;;;;4.37;2.60;;;22.60;99.90;;;;;;5099736;28;20208;-58
2023/08/17 08:38:29;;;;;;;2.33;2.13;;;22.60;99.90;;;;;;5096116;28;20250;-58
2023/08/17 08:40:54;;;;;;;4.27;2.60;;;22.60;99.90;;;;;;5095928;28;20659;-58
2023/08/17 08:43:20;;;;;;;3.10;2.60;;;22.70;99.90;;;;;;5076423;28;20189;-55
2023/08/17 08:45:46;;;;;;;4.07;2.70;;;22.70;99.90;;;;;;5091304;28;20199;-56
2023/08/17 08:48:13;;;;;;;3.37;2.87;;;22.80;99.90;;;;;;5096123;28;20217;-55
2023/08/17 09:12:13;;;;;;;5.20;3.60;;;22.40;99.90;;;;;;5067567;28;21053;-60
2023/08/17 09:14:40;;;;;;;5.43;3.83;;;22.40;99.90;;;;;;5075937;28;20196;-60
2023/08/17 09:17:06;;;;;;;5.83;3.60;;;22.40;99.90;;;;;;5087764;28;20193;-60
2023/08/17 09:19:33;;;;;;;6.37;3.70;;;22.40;99.90;;;;;;5064788;28;20189;-59
2023/08/17 09:22:01;;;;;;;7.30;3.77;;;22.40;99.90;;;;;;5081671;28;20196;-61
2023/08/17 09:24:35;;;;;;;4.00;3.60;;;22.60;99.90;;;;;;5073781;28;20186;-58
2023/08/17 09:27:00;;;;;;;4.40;3.37;;;22.70;99.90;;;;;;5078301;28;20777;-62
2023/08/17 09:29:26;;;;;;;3.97;2.80;;;22.70;99.90;;;;;;5076283;28;20197;-60
2023/08/17 09:31:51;;;;;;;6.83;3.73;;;22.80;99.90;;;;;;5074713;28;20273;-58
2023/08/17 09:34:19;;;;;;;4.03;2.80;;;22.70;99.90;;;;;;5059515;28;20185;-56
2023/08/17 09:36:47;;;;;;;3.60;3.30;;;22.90;99.90;;;;;;5061772;28;20199;-59
2023/08/17 09:39:14;;;;;;;4.88;3.17;;;23.10;99.90;;;;;;5076129;28;20233;-56
2023/08/17 09:41:43;;;;;;;5.33;3.40;;;23.20;99.90;;;;;;5076603;28;20292;-59
2023/08/17 09:44:09;;;;;;;4.73;3.67;;;23.20;99.90;;;;;;5073787;28;20198;-58
2023/08/17 09:46:34;;;;;;;5.23;3.63;;;23.10;99.90;;;;;;5055512;28;20765;-60
2023/08/17 09:49:04;;;;;;;5.10;3.63;;;23.10;99.90;;;;;;5079470;28;20754;-60
2023/08/17 09:51:30;;;;;;;5.17;3.43;;;23.00;99.90;;;;;;5076730;28;20178;-57
2023/08/17 09:53:55;;;;;;;4.20;3.80;;;22.90;99.90;;;;;;5074485;28;20202;-59
2023/08/17 09:56:23;;;;;;;5.73;3.53;;;22.90;99.90;;;;;;5073818;28;20195;-59
2023/08/17 09:58:48;;;;;;;3.90;3.60;;;22.90;99.90;;;;;;5062001;28;20196;-59
2023/08/17 10:01:15;;;;;;;8.17;4.23;;;23.00;99.90;;;;;;5061717;28;20193;-61
2023/08/17 10:03:43;;;;;;;4.93;3.20;;;23.10;99.90;;;;;;5060041;28;20197;-61
2023/08/17 10:06:11;;;;;;;7.60;4.57;;;23.20;99.90;;;;;;5096570;28;20205;-61
2023/08/17 10:08:42;;;;;;;4.73;3.83;;;23.20;99.90;;;;;;5102665;28;20177;-61
2023/08/17 10:11:09;;;;;;;3.87;3.50;;;23.10;99.90;;;;;;5079621;28;20181;-61
2023/08/17 10:13:37;;;;;;;5.60;3.50;;;23.10;99.90;;;;;;5102505;28;20184;-61
2023/08/17 10:16:26;;;;;;;3.70;3.33;;;23.10;99.90;;;;;;5102395;28;20204;-62
2023/08/17 10:19:12;;;;;;;4.07;3.57;;;23.20;99.90;;;;;;5093298;28;20667;-61
2023/08/17 10:21:56;;;;;;;4.18;3.88;;;23.30;99.90;;;;;;5078130;28;20281;-61
2023/08/17 10:24:23;;;;;;;6.67;3.47;;;23.40;99.90;;;;;;5100021;28;20216;-60
2023/08/17 10:26:49;;;;;;;4.67;3.40;;;23.60;99.90;;;;;;5101757;28;20212;-60
2023/08/17 10:29:16;;;;;;;3.60;3.17;;;23.70;99.90;;;;;;5094859;28;20294;-58
2023/08/17 10:31:47;;;;;;;6.72;3.70;;;23.80;99.90;;;;;;5093717;28;20194;-60
2023/08/17 10:34:13;;;;;;;7.97;3.85;;;23.70;99.90;;;;;;5087448;28;20187;-57
2023/08/17 10:36:39;;;;;;;5.60;3.63;;;23.60;99.90;;;;;;5090235;28;20224;-57
2023/08/17 10:39:22;;;;;;;11.93;3.50;;;23.70;99.90;;;;;;5074097;28;20235;-58
2023/08/17 10:41:49;;;;;;;9.80;7.40;;;23.80;99.90;;;;;;5096810;28;20538;-59
2023/08/17 10:44:17;;;;;;;4.47;3.73;;;23.80;99.90;;;;;;5096152;28;20189;-59
2023/08/17 10:46:45;;;;;;;5.10;3.67;;;23.80;99.90;;;;;;5101061;28;20215;-60
2023/08/17 10:49:27;;;;;;;8.00;3.73;;;24.00;99.90;;;;;;5100811;28;20197;-59
2023/08/17 10:52:06;;;;;;;6.30;3.40;;;24.10;99.90;;;;;;5100370;28;20231;-60
2023/08/17 10:54:39;;;;;;;5.67;3.70;;;24.20;99.90;;;;;;5100197;28;21399;-61
2023/08/17 10:57:25;;;;;;;4.90;3.50;;;24.40;99.90;;;;;;5100951;28;20767;-61
2023/08/17 11:00:26;;;;;;;3.90;3.55;;;24.50;99.90;;;;;;5081149;28;20204;-61
2023/08/17 11:03:09;;;;;;;6.15;3.35;;;24.60;99.90;;;;;;5064228;28;20545;-63
2023/08/17 11:05:46;;;;;;;3.90;3.47;;;24.80;99.90;;;;;;5099027;28;20253;-61
2023/08/17 11:08:24;;;;;;;4.03;3.72;;;25.20;99.90;;;;;;5098839;28;20219;-61
2023/08/17 11:11:04;;;;;;;3.80;3.47;;;25.50;99.90;;;;;;5076595;28;20746;-61
2023/08/17 11:13:34;;;;;;;4.68;3.58;;;25.40;99.90;;;;;;5082727;28;20775;-67
2023/08/17 11:16:01;;;;;;;6.90;4.25;;;25.80;99.90;;;;;;5076263;28;20270;-59
2023/08/17 11:18:27;;;;;;;4.03;3.67;;;25.80;99.90;;;;;;5079566;28;20202;-60
2023/08/17 11:20:53;;;;;;;3.60;3.30;;;25.80;99.90;;;;;;5082746;28;20195;-62
2023/08/17 11:23:19;;;;;;;3.65;3.20;;;25.90;99.90;;;;;;5082513;28;20974;-66
2023/08/17 11:25:45;;;;;;;4.05;3.55;;;26.00;99.90;;;;;;5082478;28;20179;-59
2023/08/17 11:28:13;;;;;;;3.45;3.25;;;26.20;99.90;;;;;;5082667;28;20324;-64
2023/08/17 11:30:39;;;;;;;4.00;3.70;;;26.40;99.90;;;;;;5098154;28;20200;-58
2023/08/17 11:33:05;;;;;;;7.70;3.33;;;26.40;99.90;;;;;;5100289;28;20195;-62
2023/08/17 11:35:31;;;;;;;4.72;4.32;;;26.30;99.90;;;;;;5079651;28;20297;-62
2023/08/17 11:37:56;;;;;;;5.15;3.42;;;26.00;99.90;;;;;;5100951;28;20270;-62
2023/08/17 11:40:23;;;;;;;3.63;3.33;;;26.00;99.90;;;;;;5099227;28;20465;-61
2023/08/17 11:42:49;;;;;;;5.25;3.58;;;26.30;99.90;;;;;;5100597;28;20275;-61
2023/08/17 11:45:15;;;;;;;5.05;4.07;;;26.30;99.90;;;;;;5100817;28;20240;-61
2023/08/17 11:47:44;;;;;;;3.88;3.58;;;26.30;99.90;;;;;;5084279;28;20214;-61
2023/08/17 11:50:11;;;;;;;4.88;3.45;;;26.70;99.90;;;;;;5086513;28;20194;-61
2023/08/17 11:52:37;;;;;;;5.70;4.43;;;27.10;99.90;;;;;;5101637;28;20775;-61
2023/08/17 11:55:05;;;;;;;4.45;4.13;;;27.50;99.90;;;;;;5097383;28;20190;-58
2023/08/17 11:57:31;;;;;;;5.15;3.63;;;27.10;99.90;;;;;;5079474;28;20619;-58
2023/08/17 11:59:58;;;;;;;3.85;3.45;;;26.60;99.90;;;;;;5080694;28;20273;-57
2023/08/17 12:02:24;;;;;;;4.38;3.83;;;26.30;99.90;;;;;;5094407;28;20214;-57
2023/08/17 12:04:55;;;;;;;6.57;4.28;;;26.40;99.90;;;;;;5095338;28;20220;-57
2023/08/17 12:07:23;;;;;;;4.93;4.43;;;26.50;99.90;;;;;;5102404;28;20239;-57
2023/08/17 12:09:48;;;;;;;6.22;4.70;;;26.90;99.90;;;;;;5079448;28;20195;-57
2023/08/17 12:12:18;;;;;;;4.05;3.65;;;26.80;99.90;;;;;;5104011;28;20224;-57
2023/08/17 12:14:46;;;;;;;5.32;4.80;;;26.70;99.90;;;;;;5094377;28;20200;-58
2023/08/17 12:17:19;;;;;;;4.78;3.72;;;26.50;99.90;;;;;;5103402;28;20981;-58
2023/08/17 12:19:48;;;;;;;4.95;4.25;;;26.40;99.90;;;;;;5094212;28;20588;-58
2023/08/17 12:22:14;;;;;;;5.15;4.13;;;26.40;99.90;;;;;;5095615;28;20287;-57
2023/08/17 12:24:39;;;;;;;6.28;4.40;;;26.40;99.90;;;;;;5094298;28;20267;-57
2023/08/17 12:27:06;;;;;;;5.00;4.38;;;26.40;99.90;;;;;;5094695;28;20211;-64
2023/08/17 12:29:31;;;;;;;5.80;3.95;;;26.40;99.90;;;;;;5094480;28;20220;-58
2023/08/17 12:31:58;;;;;;;4.38;4.07;;;26.30;99.90;;;;;;5099448;28;20284;-62
2023/08/17 12:34:23;;;;;;;5.60;4.63;;;26.40;99.90;;;;;;5095110;28;20196;-57
2023/08/17 12:36:49;;;;;;;5.05;4.57;;;26.40;99.90;;;;;;5094850;28;20207;-57
2023/08/17 12:39:15;;;;;;;4.68;4.28;;;26.40;99.90;;;;;;5097781;28;20210;-57
2023/08/17 12:41:41;;;;;;;4.68;4.28;;;26.40;99.90;;;;;;5093673;28;20195;-58
2023/08/17 12:44:06;;;;;;;5.22;4.82;;;26.50;99.90;;;;;;5092005;28;20214;-59
2023/08/17 12:46:34;;;;;;;5.00;4.60;;;26.70;99.90;;;;;;5093702;28;20218;-60
2023/08/17 12:49:00;;;;;;;4.47;4.18;;;26.70;99.90;;;;;;5103835;28;20188;-68
2023/08/17 12:51:25;;;;;;;5.07;4.68;;;27.20;99.90;;;;;;5103198;28;20579;-68
2023/08/17 12:53:50;;;;;;;4.63;4.22;;;27.40;99.90;;;;;;5103298;28;20230;-70
2023/08/17 12:56:16;;;;;;;5.20;4.80;;;27.80;99.90;;;;;;5103222;28;20562;-58
2023/08/17 12:58:41;;;;;;;4.75;4.32;;;28.10;99.90;;;;;;5077083;28;20233;-58
2023/08/17 13:01:07;;;;;;;14.50;13.05;;;27.90;99.90;;;;;;5091999;28;21048;-58
2023/08/17 13:03:32;;;;;;;5.65;4.97;;;28.00;99.90;;;;;;5102811;28;20196;-59
2023/08/17 13:05:58;;;;;;;7.38;4.95;;;28.20;99.90;;;;;;5091714;28;20212;-62